Hitchcock, Oklahoma
Current Conditions -  °F | °C
As of 7:55 AM on Monday 24 Nov 2014 (Local Time) from KJWG Reporting Station
Clear Clear  
Wind Chill: 27°   Ceiling: Unl
Heat Index: 33°   Visibility: 10mi
Dew Point: 26°   Wind: 8mph
Humidity: 75%   Direction: 280°W
Pressure: 29.94"   Gusts: NA
Location:  35.97°N, 98.35°W
Report Text: KJWG 241355Z AUTO 28007KT 10SM CLR 01/M03 A2994 RMK AO2 T00081031
Loading
Personal Weather Stations






























Interactive Weather Map New forecast layout! Learn more

10-Day Weather Forecast

Advertisements
Track Severe Weather on mobile